createdAt,value
2022-11-15T00:01:27.268Z,77.14
2022-11-15T00:04:30.122Z,77.05
2022-11-15T00:07:54.769Z,77.13
2022-11-15T00:10:57.357Z,77.19
2022-11-15T00:14:03.411Z,77.10
2022-11-15T00:17:06.403Z,77.07
2022-11-15T00:20:09.881Z,77.15
2022-11-15T00:23:13.423Z,77.31
2022-11-15T00:26:16.979Z,77.22
2022-11-15T00:29:20.023Z,76.99
2022-11-15T00:32:22.972Z,77.00
2022-11-15T00:35:26.055Z,77.08
2022-11-15T00:38:37.081Z,77.25
2022-11-15T00:41:39.939Z,77.11
2022-11-15T00:44:42.810Z,77.20
2022-11-15T00:47:53.096Z,77.17
2022-11-15T00:50:55.981Z,77.12
2022-11-15T00:54:37.565Z,77.26
2022-11-15T00:57:40.514Z,77.49
2022-11-15T01:00:44.203Z,77.25
2022-11-15T01:03:47.245Z,76.98
2022-11-15T01:06:50.312Z,76.98
2022-11-15T01:10:21.616Z,76.92
2022-11-15T01:13:24.553Z,77.12
2022-11-15T01:16:27.624Z,77.05
2022-11-15T01:19:30.525Z,76.82
2022-11-15T01:22:33.636Z,76.91
2022-11-15T01:25:36.650Z,76.98
2022-11-15T01:28:41.853Z,76.90
2022-11-15T01:31:44.829Z,76.66
2022-11-15T01:34:47.763Z,76.68
2022-11-15T01:37:50.787Z,76.74
2022-11-15T01:40:53.691Z,76.51
2022-11-15T01:44:17.060Z,76.43
2022-11-15T01:47:26.154Z,76.22
2022-11-15T01:50:33.703Z,76.25
2022-11-15T01:53:39.620Z,76.07
2022-11-15T01:56:52.202Z,76.29
2022-11-15T01:59:55.563Z,76.28
2022-11-15T02:02:59.120Z,76.08
2022-11-15T02:06:04.864Z,76.17
2022-11-15T02:09:07.851Z,76.15
2022-11-15T02:12:13.601Z,76.25
2022-11-15T02:15:17.010Z,75.97
2022-11-15T02:18:35.134Z,75.99
2022-11-15T02:22:07.347Z,76.18
2022-11-15T02:25:25.193Z,76.28
2022-11-15T02:28:34.497Z,76.33
2022-11-15T02:32:05.328Z,76.19
2022-11-15T02:35:29.648Z,76.21
2022-11-15T02:38:47.277Z,76.29
2022-11-15T02:42:04.999Z,76.24
2022-11-15T02:45:14.353Z,76.31
2022-11-15T02:48:19.146Z,76.18
2022-11-15T02:51:22.861Z,76.34
2022-11-15T02:54:55.262Z,76.40
2022-11-15T02:58:20.140Z,76.42
2022-11-15T03:01:44.237Z,76.35
2022-11-15T03:04:57.178Z,76.38
2022-11-15T03:08:24.282Z,76.22
2022-11-15T03:11:28.912Z,76.40
2022-11-15T03:14:37.364Z,76.35
2022-11-15T03:17:52.823Z,76.39
2022-11-15T03:20:58.303Z,76.58
2022-11-15T03:24:06.664Z,76.48
2022-11-15T03:27:13.779Z,76.36
2022-11-15T03:30:18.138Z,76.60
2022-11-15T03:33:23.189Z,76.58
2022-11-15T03:36:27.579Z,76.71
2022-11-15T03:39:30.766Z,76.76
2022-11-15T03:42:46.245Z,76.80
2022-11-15T03:46:02.088Z,76.81
2022-11-15T03:49:17.422Z,76.86
2022-11-15T03:52:22.369Z,76.78
2022-11-15T03:55:25.483Z,76.74
2022-11-15T03:58:28.430Z,76.95
2022-11-15T04:01:31.471Z,76.86
2022-11-15T04:04:34.502Z,76.78
2022-11-15T04:07:39.255Z,76.71
2022-11-15T04:10:43.059Z,76.83
2022-11-15T04:13:46.006Z,76.62
2022-11-15T04:16:48.961Z,76.97
2022-11-15T04:20:13.594Z,76.79
2022-11-15T04:23:41.475Z,76.97
2022-11-15T04:26:44.419Z,77.07
2022-11-15T04:29:48.006Z,76.94
2022-11-15T04:32:50.810Z,77.10
2022-11-15T04:36:12.441Z,77.13
2022-11-15T04:39:15.357Z,77.04
2022-11-15T04:42:18.255Z,77.16
2022-11-15T04:45:21.419Z,76.94
2022-11-15T04:48:24.254Z,76.78
2022-11-15T04:51:27.779Z,76.82
2022-11-15T04:54:30.682Z,76.88
2022-11-15T04:57:33.552Z,76.89
2022-11-15T05:00:37.463Z,76.80
2022-11-15T05:04:04.038Z,76.54
2022-11-15T05:07:06.956Z,76.67
2022-11-15T05:10:10.558Z,76.70
2022-11-15T05:13:13.405Z,76.55
2022-11-15T05:16:16.239Z,76.62
2022-11-15T05:19:19.036Z,76.81
2022-11-15T05:22:23.739Z,76.76
2022-11-15T05:25:27.199Z,76.64
2022-11-15T05:28:30.023Z,76.65
2022-11-15T05:31:32.868Z,76.83
2022-11-15T05:34:36.213Z,76.78
2022-11-15T05:37:39.072Z,76.59
2022-11-15T05:40:42.081Z,76.76
2022-11-15T05:43:47.477Z,76.81
2022-11-15T05:46:54.620Z,76.71
2022-11-15T05:49:58.650Z,76.60
2022-11-15T05:53:05.259Z,76.59
2022-11-15T05:56:10.883Z,76.70
2022-11-15T05:59:14.324Z,76.67
2022-11-15T06:02:17.294Z,76.50
2022-11-15T06:05:20.194Z,76.57
2022-11-15T06:08:23.056Z,76.64
2022-11-15T06:11:29.441Z,76.74
2022-11-15T06:14:32.409Z,76.46
2022-11-15T06:17:35.257Z,76.40
2022-11-15T06:20:38.105Z,76.72
2022-11-15T06:23:40.937Z,76.77
2022-11-15T06:26:43.687Z,76.85
2022-11-15T06:29:46.505Z,76.57
2022-11-15T06:32:49.461Z,76.81
2022-11-15T06:35:52.385Z,76.84
2022-11-15T06:39:20.148Z,76.95
2022-11-15T06:42:23.878Z,76.60
2022-11-15T06:45:27.718Z,76.61
2022-11-15T06:48:31.437Z,76.84
2022-11-15T06:51:34.359Z,76.84
2022-11-15T06:54:37.192Z,76.75
2022-11-15T06:57:48.441Z,76.76
2022-11-15T07:00:51.396Z,76.83
2022-11-15T07:03:54.279Z,76.61
2022-11-15T07:06:57.182Z,76.43
2022-11-15T07:10:00.110Z,76.44
2022-11-15T07:13:03.059Z,76.55
2022-11-15T07:16:08.207Z,76.40
2022-11-15T07:19:11.224Z,76.42
2022-11-15T07:22:14.026Z,76.32
2022-11-15T07:25:17.451Z,76.46
2022-11-15T07:28:20.607Z,76.49
2022-11-15T07:31:23.687Z,76.35
2022-11-15T07:34:26.504Z,76.36
2022-11-15T07:37:29.354Z,76.17
2022-11-15T07:40:33.236Z,76.20
2022-11-15T07:43:36.628Z,76.26
2022-11-15T07:46:39.477Z,76.38
2022-11-15T07:49:42.292Z,76.05
2022-11-15T07:52:46.291Z,75.99
2022-11-15T07:55:49.100Z,75.96
2022-11-15T07:58:52.010Z,76.22
2022-11-15T08:01:54.913Z,75.83
2022-11-15T08:04:58.105Z,75.78
2022-11-15T08:08:00.959Z,75.80
2022-11-15T08:11:04.386Z,75.90
2022-11-15T08:14:07.242Z,75.84
2022-11-15T08:17:10.647Z,75.69
2022-11-15T08:20:13.437Z,75.51
2022-11-15T08:23:16.287Z,75.84
2022-11-15T08:26:19.153Z,75.78
2022-11-15T08:29:22.022Z,75.84
2022-11-15T08:32:25.409Z,75.44
2022-11-15T08:35:30.433Z,75.52
2022-11-15T08:38:34.303Z,75.60
2022-11-15T08:41:39.049Z,75.47
2022-11-15T08:44:41.838Z,75.45
2022-11-15T08:48:12.338Z,75.24
2022-11-15T08:51:15.202Z,75.14
2022-11-15T08:54:18.273Z,75.22
2022-11-15T08:57:21.100Z,75.28
2022-11-15T09:00:23.996Z,75.34
2022-11-15T09:03:26.965Z,75.18
2022-11-15T09:06:29.949Z,74.82
2022-11-15T09:09:32.783Z,74.99
2022-11-15T09:12:36.275Z,75.00
2022-11-15T09:15:39.384Z,74.73
2022-11-15T09:18:43.060Z,74.62
2022-11-15T09:21:46.270Z,74.48
2022-11-15T09:24:49.243Z,74.63
2022-11-15T09:27:52.147Z,74.39
2022-11-15T09:31:03.243Z,74.45
2022-11-15T09:34:06.137Z,74.14
2022-11-15T09:37:09.055Z,73.56
2022-11-15T09:40:17.702Z,73.90
2022-11-15T09:43:44.351Z,73.96
2022-11-15T09:47:05.668Z,73.84
2022-11-15T09:50:16.216Z,73.93
2022-11-15T09:54:24.110Z,73.46
2022-11-15T09:57:16.310Z,73.43
2022-11-15T10:00:50.554Z,73.66
2022-11-15T10:03:59.096Z,73.43
2022-11-15T10:07:14.533Z,73.30
2022-11-15T10:10:31.289Z,72.95
2022-11-15T10:13:38.344Z,72.79
2022-11-15T10:16:48.452Z,72.66
2022-11-15T10:20:13.712Z,72.23
2022-11-15T10:23:20.244Z,72.71
2022-11-15T10:26:25.205Z,72.80
2022-11-15T10:29:28.086Z,72.62
2022-11-15T10:32:34.104Z,72.54
2022-11-15T10:35:37.184Z,72.08
2022-11-15T10:38:49.164Z,72.34
2022-11-15T10:41:52.466Z,72.40
2022-11-15T10:44:55.743Z,72.29
2022-11-15T10:48:14.706Z,72.13
2022-11-15T10:51:31.089Z,72.04
2022-11-15T10:54:42.867Z,71.95
2022-11-15T10:57:55.610Z,71.85
2022-11-15T11:01:10.634Z,71.91
2022-11-15T11:04:15.259Z,71.81
2022-11-15T11:07:25.418Z,71.81
2022-11-15T11:10:50.496Z,71.69
2022-11-15T11:13:51.848Z,71.65
2022-11-15T11:17:34.037Z,71.50
2022-11-15T11:20:46.143Z,71.57
2022-11-15T11:24:17.050Z,71.18
2022-11-15T11:27:29.222Z,71.10
2022-11-15T11:30:47.009Z,70.71
2022-11-15T11:34:12.897Z,70.23
2022-11-15T11:37:30.123Z,70.55
2022-11-15T11:40:46.551Z,70.59
2022-11-15T11:44:34.991Z,70.46
2022-11-15T11:47:48.722Z,70.20
2022-11-15T11:50:59.483Z,69.97
2022-11-15T11:54:16.046Z,69.66
2022-11-15T11:57:50.796Z,69.58
2022-11-15T12:00:59.723Z,69.38
2022-11-15T12:04:26.102Z,69.08
2022-11-15T12:07:38.186Z,68.99
2022-11-15T12:10:46.647Z,68.79
2022-11-15T12:13:54.927Z,68.78
2022-11-15T12:16:59.803Z,68.28
2022-11-15T12:20:16.676Z,67.95
2022-11-15T12:23:27.823Z,68.12
2022-11-15T12:26:44.248Z,67.96
2022-11-15T12:29:53.373Z,68.15
2022-11-15T12:32:58.373Z,67.99
2022-11-15T12:36:05.552Z,67.86
2022-11-15T12:39:13.266Z,67.69
2022-11-15T12:42:22.495Z,67.85
2022-11-15T12:45:32.733Z,67.69
2022-11-15T12:48:35.489Z,67.50
2022-11-15T12:51:44.389Z,67.37
2022-11-15T12:54:55.161Z,67.22
2022-11-15T12:58:44.314Z,67.00
2022-11-15T13:01:48.924Z,67.19
2022-11-15T13:04:55.143Z,66.87
2022-11-15T13:07:59.423Z,66.72
2022-11-15T13:11:40.732Z,66.73
2022-11-15T13:14:48.515Z,66.94
2022-11-15T13:17:56.701Z,67.05
2022-11-15T13:21:02.633Z,67.17
2022-11-15T13:24:24.658Z,67.20
2022-11-15T13:27:28.007Z,67.25
2022-11-15T13:30:32.444Z,67.33
2022-11-15T13:33:37.815Z,67.54
2022-11-15T13:36:40.855Z,67.64
2022-11-15T13:39:45.076Z,67.60
2022-11-15T13:42:48.023Z,67.70
2022-11-15T13:46:21.077Z,67.67
2022-11-15T13:49:31.754Z,67.89
2022-11-15T13:57:44.016Z,68.31
2022-11-15T14:00:48.387Z,68.30
2022-11-15T14:04:02.191Z,68.24
2022-11-15T14:07:05.361Z,68.26
2022-11-15T14:10:29.827Z,68.39
2022-11-15T14:13:33.009Z,68.52
2022-11-15T14:16:46.539Z,68.43
2022-11-15T14:19:50.196Z,68.46
2022-11-15T14:22:58.086Z,68.39
2022-11-15T14:26:01.130Z,68.61
2022-11-15T14:29:36.811Z,68.75
2022-11-15T14:32:51.113Z,68.67
2022-11-15T14:35:57.163Z,68.69
2022-11-15T14:39:00.051Z,68.77
2022-11-15T14:42:02.875Z,68.72
2022-11-15T14:45:15.934Z,68.97
2022-11-15T14:48:18.805Z,69.07
2022-11-15T14:51:21.685Z,69.02
2022-11-15T14:54:24.657Z,69.02
2022-11-15T14:57:29.073Z,69.00
2022-11-15T15:00:35.257Z,69.00
2022-11-15T15:03:38.434Z,69.24
2022-11-15T15:06:41.349Z,69.30
2022-11-15T15:09:45.107Z,69.37
2022-11-15T15:12:48.917Z,69.32
2022-11-15T15:15:53.791Z,69.34
2022-11-15T15:18:56.643Z,69.32
2022-11-15T15:21:59.466Z,69.58
2022-11-15T15:25:02.384Z,69.63
2022-11-15T15:28:05.432Z,69.61
2022-11-15T15:31:12.406Z,69.67
2022-11-15T15:34:16.756Z,69.73
2022-11-15T15:37:27.375Z,69.68
2022-11-15T15:40:33.969Z,69.86
2022-11-15T15:43:36.837Z,70.08
2022-11-15T15:46:39.943Z,70.09
2022-11-15T15:49:42.990Z,70.15
2022-11-15T15:52:45.993Z,70.21
2022-11-15T15:55:49.050Z,70.12
2022-11-15T15:58:54.308Z,70.41
2022-11-15T16:01:57.424Z,70.59
2022-11-15T16:05:00.504Z,70.55
2022-11-15T16:08:03.635Z,70.56
2022-11-15T16:11:07.505Z,70.47
2022-11-15T16:14:10.491Z,70.45
2022-11-15T16:17:19.676Z,70.70
2022-11-15T16:20:31.699Z,70.91
2022-11-15T16:23:34.915Z,70.92
2022-11-15T16:26:39.845Z,70.87
2022-11-15T16:29:42.880Z,70.95
2022-11-15T16:32:46.484Z,70.99
2022-11-15T16:35:49.542Z,71.12
2022-11-15T16:38:54.352Z,71.25
2022-11-15T16:42:02.332Z,71.23
2022-11-15T16:45:06.136Z,71.14
2022-11-15T16:48:25.534Z,71.27
2022-11-15T16:51:29.162Z,71.17
2022-11-15T16:54:32.410Z,71.18
2022-11-15T16:57:36.188Z,71.40
2022-11-15T17:00:39.920Z,71.32
2022-11-15T17:03:44.583Z,71.23
2022-11-15T17:07:17.546Z,71.21
2022-11-15T17:10:25.700Z,71.42
2022-11-15T17:13:29.200Z,71.41
2022-11-15T17:16:32.183Z,71.41
2022-11-15T17:19:35.096Z,71.36
2022-11-15T17:22:37.975Z,71.33
2022-11-15T17:25:41.618Z,71.51
2022-11-15T17:28:44.498Z,71.63
2022-11-15T17:31:47.357Z,71.60
2022-11-15T17:34:50.212Z,71.53
2022-11-15T17:37:53.379Z,71.49
2022-11-15T17:41:05.453Z,71.58
2022-11-15T17:44:08.300Z,71.64
2022-11-15T17:47:11.164Z,71.65
2022-11-15T17:50:14.530Z,71.67
2022-11-15T17:53:18.049Z,71.78
2022-11-15T17:56:27.191Z,71.88
2022-11-15T17:59:39.680Z,71.85
2022-11-15T18:02:42.931Z,72.05
2022-11-15T18:05:46.219Z,72.21
2022-11-15T18:09:00.399Z,72.26
2022-11-15T18:12:07.375Z,72.44
2022-11-15T18:15:14.120Z,72.32
2022-11-15T18:18:20.922Z,72.35
2022-11-15T18:21:36.328Z,72.41
2022-11-15T18:24:52.305Z,72.57
2022-11-15T18:27:59.894Z,72.57
2022-11-15T18:31:26.030Z,72.66
2022-11-15T18:35:01.579Z,72.64
2022-11-15T18:38:12.451Z,72.80
2022-11-15T20:07:06.869Z,67.66
2022-11-15T20:10:19.574Z,68.69
2022-11-15T20:13:28.180Z,69.19
2022-11-15T20:16:42.104Z,69.49
2022-11-15T20:19:51.749Z,69.91
2022-11-15T20:27:10.228Z,70.41
2022-11-15T20:31:00.821Z,70.59
2022-11-15T20:34:39.798Z,70.94
2022-11-15T20:37:58.822Z,71.42
2022-11-15T20:41:04.111Z,71.85
2022-11-15T20:44:06.989Z,71.77
2022-11-15T20:47:09.825Z,71.80
2022-11-15T20:50:40.608Z,72.01
2022-11-15T20:53:38.178Z,71.69
2022-11-15T20:56:41.080Z,71.92
2022-11-15T20:59:47.706Z,72.21
2022-11-15T21:02:53.477Z,71.95
2022-11-15T21:05:56.417Z,72.07
2022-11-15T21:09:20.986Z,71.85
2022-11-15T21:12:24.032Z,71.68
2022-11-15T21:15:26.858Z,72.00
2022-11-15T21:18:35.635Z,72.01
2022-11-15T21:21:40.536Z,72.23
2022-11-15T21:24:43.662Z,72.05
2022-11-15T21:28:01.913Z,72.10
2022-11-15T21:31:10.000Z,72.40
2022-11-15T21:34:15.530Z,72.50
2022-11-15T21:37:18.339Z,72.40
2022-11-15T21:40:25.664Z,72.52
2022-11-15T21:43:28.601Z,72.67
2022-11-15T21:46:32.363Z,72.53
2022-11-15T21:49:38.770Z,72.54
2022-11-15T21:52:47.261Z,72.73
2022-11-15T21:55:50.225Z,72.84
2022-11-15T21:58:54.258Z,72.70
2022-11-15T22:02:16.174Z,72.60
2022-11-15T22:05:19.994Z,72.72
2022-11-15T22:08:24.130Z,72.96
2022-11-15T22:11:29.303Z,72.99
2022-11-15T22:14:32.286Z,72.83
2022-11-15T22:17:54.052Z,72.77
2022-11-15T22:20:58.394Z,72.68
2022-11-15T22:24:04.104Z,72.57
2022-11-15T22:27:07.297Z,72.98
2022-11-15T22:30:11.277Z,72.97
2022-11-15T22:33:15.398Z,72.87
2022-11-15T22:36:18.533Z,72.75
2022-11-15T22:39:21.432Z,72.64
2022-11-15T22:42:24.432Z,72.82
2022-11-15T22:45:27.505Z,72.70
2022-11-15T22:48:34.659Z,72.83
2022-11-15T22:51:40.694Z,72.82
2022-11-15T22:54:44.218Z,72.69
2022-11-15T22:57:47.174Z,72.87
2022-11-15T23:00:57.544Z,72.75
2022-11-15T23:04:01.450Z,72.98
2022-11-15T23:07:04.668Z,73.05
2022-11-15T23:10:26.921Z,73.13
2022-11-15T23:13:32.260Z,73.04
2022-11-15T23:16:35.228Z,72.95
2022-11-15T23:19:38.138Z,72.95
2022-11-15T23:22:47.435Z,73.09
2022-11-15T23:25:59.125Z,73.26
2022-11-15T23:29:02.136Z,73.33
2022-11-15T23:32:49.236Z,73.11
2022-11-15T23:35:55.697Z,73.24
2022-11-15T23:38:58.771Z,73.06
2022-11-15T23:42:08.576Z,73.17
2022-11-15T23:45:12.298Z,73.30
2022-11-15T23:48:15.254Z,73.42
2022-11-15T23:51:18.219Z,73.27
2022-11-15T23:54:25.106Z,73.28
2022-11-15T23:57:29.147Z,73.26
